Time;durP1;ratioP1;P1;durP2;ratioP2;P2;SDS_P1;SDS_P2;PMS_P1;PMS_P2;Temp;Humidity;BMP_temperature;BMP_pressure;BME280_temperature;BME280_humidity;BME280_pressure;Samples;Min_cycle;Max_cycle;Signal;HPM_P1;HPM_P2
2022/02/12 00:01:30;;;;;;;39.30;25.80;;;;;;;3.03;70.50;97953.44;109868;1251;68698;-71
2022/02/12 00:03:59;;;;;;;42.80;28.50;;;;;;;3.09;70.34;97956.36;109751;1251;59770;-69
2022/02/12 00:06:28;;;;;;;42.40;26.40;;;;;;;3.14;70.45;97962.55;110166;1247;59673;-70
2022/02/12 00:08:57;;;;;;;42.50;29.10;;;;;;;3.18;70.62;97964.99;109953;1250;70804;-70
2022/02/12 00:11:27;;;;;;;38.00;25.80;;;;;;;3.22;70.78;97971.75;109930;1251;68756;-67
2022/02/12 00:13:58;;;;;;;40.70;28.80;;;;;;;3.28;70.80;97974.79;110031;1250;69473;-65
2022/02/12 00:16:27;;;;;;;39.60;23.90;;;;;;;3.31;71.00;97984.88;110179;1247;59701;-68
2022/02/12 00:18:57;;;;;;;30.50;20.30;;;;;;;3.31;71.89;97981.77;110129;1248;59741;-66
2022/02/12 00:21:27;;;;;;;35.40;23.80;;;;;;;3.34;71.61;97988.23;110000;1251;69633;-67
2022/02/12 00:23:57;;;;;;;30.60;20.80;;;;;;;3.32;72.11;97997.77;110170;1247;66823;-64
2022/02/12 00:26:26;;;;;;;30.70;20.50;;;;;;;3.35;72.08;98001.47;110132;1247;69232;-68
2022/02/12 00:28:55;;;;;;;31.40;22.80;;;;;;;3.32;72.97;98000.52;110157;1248;59596;-64
2022/02/12 00:31:24;;;;;;;27.30;18.30;;;;;;;3.31;73.42;98001.56;110022;1250;59748;-72
2022/02/12 00:33:54;;;;;;;28.30;19.20;;;;;;;3.29;73.43;98011.80;109896;1248;71465;-66
2022/02/12 00:36:23;;;;;;;29.10;18.80;;;;;;;3.25;73.97;98020.23;109950;1248;68607;-64
2022/02/12 00:38:54;;;;;;;33.40;21.30;;;;;;;3.19;74.57;98019.40;109889;1247;68644;-72
2022/02/12 00:41:23;;;;;;;27.20;19.20;;;;;;;3.12;75.14;98015.84;109843;1251;59745;-73
2022/02/12 00:43:53;;;;;;;30.70;22.00;;;;;;;3.07;75.07;98019.27;110220;1247;60135;-70
2022/02/12 00:46:22;;;;;;;28.90;19.00;;;;;;;2.99;75.97;98027.30;110106;1248;70764;-67
2022/02/12 00:48:52;;;;;;;26.10;18.60;;;;;;;2.96;75.65;98026.34;110084;1248;68118;-66
2022/02/12 00:51:21;;;;;;;34.20;22.40;;;;;;;2.90;76.46;98031.73;109914;1251;69348;-66
2022/02/12 00:53:50;;;;;;;32.40;23.10;;;;;;;2.85;76.46;98028.43;109946;1251;59741;-66
2022/02/12 00:56:19;;;;;;;27.80;18.60;;;;;;;2.76;77.84;98025.10;109880;1250;59669;-65
2022/02/12 00:58:49;;;;;;;28.30;20.10;;;;;;;2.72;77.91;98027.30;110121;1248;71371;-64
2022/02/12 01:01:19;;;;;;;20.90;14.40;;;;;;;2.69;77.66;98026.71;110006;1250;68513;-64
2022/02/12 01:03:49;;;;;;;23.50;15.30;;;;;;;2.70;77.38;98031.65;110031;1250;69410;-68
2022/02/12 01:06:18;;;;;;;21.40;13.60;;;;;;;2.70;77.10;98036.64;110076;1248;59742;-66
2022/02/12 01:08:48;;;;;;;20.90;13.10;;;;;;;2.73;76.28;98036.56;109968;1248;59762;-65
2022/02/12 01:11:17;;;;;;;18.20;12.30;;;;;;;2.76;76.27;98037.66;110193;1247;71453;-71
2022/02/12 01:13:47;;;;;;;23.20;16.50;;;;;;;2.76;75.90;98036.79;110181;1248;67780;-67
2022/02/12 01:16:16;;;;;;;21.20;14.00;;;;;;;2.75;76.62;98035.29;110044;1250;69395;-64
2022/02/12 01:18:47;;;;;;;17.10;11.90;;;;;;;2.75;76.26;98031.48;109832;1248;59835;-65
2022/02/12 01:21:19;;;;;;;17.40;12.00;;;;;;;2.79;76.06;98025.70;110179;1247;59681;-65
2022/02/12 01:23:49;;;;;;;18.50;13.30;;;;;;;2.79;76.01;98020.02;110190;1247;71529;-65
2022/02/12 01:26:18;;;;;;;20.90;14.10;;;;;;;2.79;76.20;98012.42;109895;1248;68468;-70
2022/02/12 01:28:47;;;;;;;23.00;15.90;;;;;;;2.78;77.71;98013.84;110108;1248;67645;-67
2022/02/12 01:31:17;;;;;;;19.80;12.70;;;;;;;2.78;78.72;98010.75;109954;1247;59746;-65
2022/02/12 01:33:46;;;;;;;15.00;11.00;;;;;;;2.80;77.17;98008.12;110155;1247;59686;-68
2022/02/12 01:36:15;;;;;;;22.90;14.70;;;;;;;2.80;77.20;98009.98;109957;1249;70867;-71
2022/02/12 01:38:44;;;;;;;18.60;11.40;;;;;;;2.78;78.53;98016.27;109896;1248;68356;-70
2022/02/12 01:41:13;;;;;;;12.00;7.50;;;;;;;2.78;77.12;98026.41;109821;1251;68764;-70
2022/02/12 01:43:43;;;;;;;15.40;10.60;;;;;;;2.80;76.14;98026.52;110171;1247;59726;-73
2022/02/12 01:46:12;;;;;;;19.00;13.20;;;;;;;2.79;78.37;98029.83;110037;1248;59677;-65
2022/02/12 01:48:44;;;;;;;13.50;9.30;;;;;;;2.79;76.83;98044.11;110143;1247;70837;-66
2022/02/12 01:51:15;;;;;;;14.70;10.90;;;;;;;2.82;75.87;98049.54;110128;1248;68555;-68
2022/02/12 01:53:44;;;;;;;;;;;;;;;2.83;75.82;98043.14;110009;1250;68480;-71
2022/02/12 01:56:14;;;;;;;16.90;10.60;;;;;;;2.83;77.39;98043.14;109919;1247;59667;-69
2022/02/12 01:58:44;;;;;;;17.10;11.60;;;;;;;2.86;76.72;98040.63;109977;1251;59673;-72
2022/02/12 02:01:13;;;;;;;19.60;13.20;;;;;;;2.86;76.51;98038.56;109933;1247;71422;-71
2022/02/12 02:03:43;;;;;;;15.30;10.60;;;;;;;2.86;76.87;98042.35;110181;1247;67694;-69
2022/02/12 02:06:12;;;;;;;14.40;10.00;;;;;;;2.89;76.71;98050.01;109801;1248;68537;-66
2022/02/12 02:08:42;;;;;;;17.00;10.80;;;;;;;2.91;76.90;98058.72;110031;1247;59666;-64
2022/02/12 02:11:15;;;;;;;19.90;11.20;;;;;;;2.92;76.86;98057.50;110035;1247;59684;-66
2022/02/12 02:13:46;;;;;;;13.30;10.00;;;;;;;2.94;77.02;98065.32;110156;1248;70808;-65
2022/02/12 02:16:15;;;;;;;;;;;;;;;2.93;77.25;98070.86;109822;1250;68601;-63
2022/02/12 02:18:45;;;;;;;15.30;11.20;;;;;;;2.93;77.69;98072.44;109901;1248;69294;-73
2022/02/12 02:21:17;;;;;;;15.20;9.80;;;;;;;2.94;77.31;98075.15;109969;1248;59719;-64
2022/02/12 02:23:47;;;;;;;18.60;12.70;;;;;;;2.97;77.53;98080.20;110125;1247;59746;-69
2022/02/12 02:26:17;;;;;;;19.40;14.60;;;;;;;3.00;77.65;98088.20;110007;1248;70880;-70
2022/02/12 02:28:48;;;;;;;16.40;12.50;;;;;;;2.98;77.59;98091.20;110154;1248;68575;-64
2022/02/12 02:31:18;;;;;;;17.50;12.50;;;;;;;2.99;77.44;98097.88;109868;1247;69472;-68
2022/02/12 02:33:53;;;;;;;20.80;14.50;;;;;;;2.98;77.45;98110.34;109963;1248;59820;-64
2022/02/12 02:36:23;;;;;;;20.10;12.50;;;;;;;3.01;78.00;98119.00;109962;1248;59674;-63
2022/02/12 02:38:53;;;;;;;21.20;15.20;;;;;;;3.00;78.36;98125.41;109734;1248;70633;-64
2022/02/12 02:41:23;;;;;;;19.00;13.80;;;;;;;2.94;78.53;98133.02;109735;1251;66886;-64
2022/02/12 02:43:53;;;;;;;22.00;13.70;;;;;;;2.92;77.94;98134.42;109388;1247;928246;-66
2022/02/12 02:46:23;;;;;;;19.30;13.40;;;;;;;2.94;77.71;98139.02;109926;1248;59708;-70
2022/02/12 02:48:53;;;;;;;19.80;13.90;;;;;;;2.92;78.45;98142.70;110151;1250;59682;-72
2022/02/12 02:56:59;;;;;;;22.70;15.60;;;;;;;2.88;78.08;98147.98;109957;1247;68608;-65
2022/02/12 02:59:30;;;;;;;20.90;13.70;;;;;;;2.87;78.30;98152.84;109969;1247;59771;-67
2022/02/12 03:01:59;;;;;;;18.70;13.70;;;;;;;2.90;77.80;98158.08;110150;1247;59670;-66
2022/02/12 03:04:29;;;;;;;20.00;13.00;;;;;;;2.80;78.84;98168.36;110104;1248;71778;-66
2022/02/12 03:06:58;;;;;;;19.50;12.60;;;;;;;2.87;77.92;98178.85;109876;1248;67698;-70
2022/02/12 03:09:28;;;;;;;18.00;13.00;;;;;;;2.89;77.78;98189.13;109656;1248;68493;-71
2022/02/12 03:11:58;;;;;;;16.10;10.70;;;;;;;2.85;77.89;98197.85;109901;1247;59783;-71
2022/02/12 03:14:28;;;;;;;18.70;13.50;;;;;;;2.87;77.55;98199.84;110045;1247;59701;-64
2022/02/12 03:16:58;;;;;;;15.90;9.80;;;;;;;2.87;77.10;98209.66;110037;1248;70831;-67
2022/02/12 03:19:27;;;;;;;17.60;11.60;;;;;;;2.86;76.73;98216.06;110021;1247;68463;-65
2022/02/12 03:21:58;;;;;;;;;;;;;;;2.82;76.66;98219.96;110229;1247;69439;-65
2022/02/12 03:24:28;;;;;;;18.60;12.00;;;;;;;2.80;76.31;98222.95;110209;1247;59757;-71
2022/02/12 03:26:58;;;;;;;;;;;;;;;2.73;76.13;98219.02;110208;1248;59751;-66
2022/02/12 03:29:29;;;;;;;17.40;11.50;;;;;;;2.70;75.97;98225.83;110048;1247;70803;-71
2022/02/12 03:31:58;;;;;;;15.60;10.20;;;;;;;2.63;75.87;98226.54;110232;1247;68573;-67
2022/02/12 03:34:28;;;;;;;16.00;11.30;;;;;;;2.61;75.69;98226.07;109963;1247;69474;-71
2022/02/12 03:36:58;;;;;;;16.50;10.20;;;;;;;2.52;75.39;98226.65;109832;1248;59702;-71
2022/02/12 03:39:29;;;;;;;14.60;10.40;;;;;;;2.48;74.99;98238.64;109694;1251;59739;-70
2022/02/12 03:41:59;;;;;;;20.40;13.40;;;;;;;2.42;74.55;98236.56;109934;1248;71610;-70
2022/02/12 03:44:29;;;;;;;15.60;10.50;;;;;;;2.34;74.14;98242.80;109914;1250;68558;-71
2022/02/12 03:46:59;;;;;;;17.20;9.90;;;;;;;2.28;73.98;98243.83;110003;1247;69387;-68
2022/02/12 03:49:28;;;;;;;15.70;10.20;;;;;;;2.25;73.71;98255.06;109915;1248;59695;-69
2022/02/12 03:51:57;;;;;;;15.80;10.90;;;;;;;2.19;73.71;98257.46;110051;1248;59678;-70
2022/02/12 03:54:27;;;;;;;14.90;11.20;;;;;;;2.15;73.81;98254.83;109881;1248;71430;-70
2022/02/12 03:56:57;;;;;;;18.90;11.10;;;;;;;2.09;73.90;98262.36;109732;1250;69743;-67
2022/02/12 03:59:27;;;;;;;;;;;;;;;2.04;73.99;98267.14;110033;1250;68665;-66
2022/02/12 04:01:56;;;;;;;14.90;10.30;;;;;;;2.00;73.90;98269.48;109979;1247;59717;-66
2022/02/12 04:04:26;;;;;;;16.80;11.30;;;;;;;1.97;74.11;98275.55;110130;1247;59697;-65
2022/02/12 04:06:55;;;;;;;17.00;10.50;;;;;;;1.95;74.18;98278.70;110079;1248;71666;-65
2022/02/12 04:09:24;;;;;;;15.80;10.80;;;;;;;1.93;74.30;98275.30;110132;1247;67770;-64
2022/02/12 04:11:54;;;;;;;17.10;11.30;;;;;;;1.91;74.19;98272.10;109655;1249;69335;-65
2022/02/12 04:14:23;;;;;;;17.10;10.50;;;;;;;1.85;74.30;98272.77;109806;1251;59693;-73
2022/02/12 04:16:53;;;;;;;18.20;11.60;;;;;;;1.81;74.49;98281.11;109937;1250;59689;-67
2022/02/12 04:19:24;;;;;;;17.30;10.60;;;;;;;1.80;74.43;98282.34;110088;1250;71428;-65
2022/02/12 04:21:55;;;;;;;16.50;10.40;;;;;;;1.76;74.56;98283.63;110037;1247;68564;-66
2022/02/12 04:24:26;;;;;;;14.90;9.30;;;;;;;1.74;74.51;98282.29;110012;1247;68662;-64
2022/02/12 04:26:56;;;;;;;17.90;11.70;;;;;;;1.73;74.66;98284.21;109667;1250;59729;-65
2022/02/12 04:29:26;;;;;;;;;;;;;;;1.71;74.75;98286.33;110184;1247;59692;-65
2022/02/12 04:31:57;;;;;;;16.40;9.80;;;;;;;1.67;74.77;98290.88;110100;1247;70821;-66
2022/02/12 04:34:28;;;;;;;16.40;9.40;;;;;;;1.66;74.76;98295.89;110071;1248;67856;-65
2022/02/12 04:36:57;;;;;;;19.30;11.70;;;;;;;1.62;74.78;98301.82;109895;1250;68860;-62
2022/02/12 04:39:26;;;;;;;17.50;11.60;;;;;;;1.60;75.08;98303.78;110148;1247;59689;-70
2022/02/12 04:42:01;;;;;;;17.60;11.40;;;;;;;1.55;75.01;98306.43;110135;1245;59639;-71
2022/02/12 04:44:32;;;;;;;16.60;10.90;;;;;;;1.56;74.92;98317.60;110045;1247;71747;-73
2022/02/12 04:47:02;;;;;;;14.90;10.10;;;;;;;1.56;74.89;98330.13;110163;1247;68720;-70
2022/02/12 04:49:33;;;;;;;14.80;8.70;;;;;;;1.55;74.92;98332.90;110086;1247;68465;-71
2022/02/12 04:52:04;;;;;;;15.80;10.20;;;;;;;1.55;74.85;98329.82;110213;1247;59707;-71
2022/02/12 04:54:33;;;;;;;14.50;10.30;;;;;;;1.53;74.65;98332.94;110210;1247;59724;-67
2022/02/12 04:57:04;;;;;;;14.30;9.80;;;;;;;1.47;75.03;98335.47;109999;1250;71577;-64
2022/02/12 04:59:36;;;;;;;15.00;9.50;;;;;;;1.49;74.60;98336.83;109738;1250;68616;-65
2022/02/12 05:02:06;;;;;;;15.20;9.50;;;;;;;1.44;75.07;98342.25;110020;1248;69393;-64
2022/02/12 05:04:38;;;;;;;11.20;7.20;;;;;;;1.44;74.76;98351.87;110073;1247;59655;-65
2022/02/12 05:07:09;;;;;;;16.60;10.70;;;;;;;1.42;74.59;98357.42;110039;1247;59746;-67
2022/02/12 05:09:40;;;;;;;14.20;10.20;;;;;;;1.35;74.83;98353.27;109879;1250;71365;-65
2022/02/12 05:12:09;;;;;;;13.10;9.10;;;;;;;1.23;74.88;98354.89;109876;1248;68476;-65
2022/02/12 05:14:39;;;;;;;12.70;9.30;;;;;;;1.28;74.47;98365.26;109907;1251;68421;-65
2022/02/12 05:17:09;;;;;;;13.60;9.10;;;;;;;1.32;74.35;98368.61;109954;1248;59701;-64
2022/02/12 05:19:41;;;;;;;11.80;7.70;;;;;;;1.26;74.45;98371.81;110090;1247;59691;-65
2022/02/12 05:22:11;;;;;;;11.40;7.70;;;;;;;1.26;74.24;98375.76;110226;1247;71378;-67
2022/02/12 05:24:42;;;;;;;12.10;8.00;;;;;;;1.27;74.08;98378.83;110217;1247;67729;-65
2022/02/12 05:27:11;;;;;;;11.80;6.90;;;;;;;1.29;74.20;98387.39;110010;1248;68703;-63
2022/02/12 05:29:44;;;;;;;8.50;5.30;;;;;;;1.31;73.87;98380.65;110034;1250;59701;-71
2022/02/12 05:32:13;;;;;;;9.80;7.50;;;;;;;1.30;73.23;98383.25;109876;1248;59668;-63
2022/02/12 05:34:44;;;;;;;9.40;7.10;;;;;;;1.22;73.26;98393.20;110032;1247;71117;-66
2022/02/12 05:37:13;;;;;;;9.10;6.20;;;;;;;1.14;73.33;98392.16;110061;1248;68563;-71
2022/02/12 05:39:46;;;;;;;10.50;6.10;;;;;;;1.03;73.40;98398.71;109937;1250;68530;-70
2022/02/12 05:42:15;;;;;;;8.30;5.00;;;;;;;0.92;73.42;98401.66;109769;1250;59716;-66
2022/02/12 05:44:47;;;;;;;9.50;5.90;;;;;;;0.82;73.62;98404.08;109906;1250;59700;-70
2022/02/12 05:47:16;;;;;;;7.70;5.20;;;;;;;0.72;73.93;98409.73;110010;1247;71571;-72
2022/02/12 05:49:45;;;;;;;9.50;5.50;;;;;;;0.57;74.43;98423.90;109901;1249;68054;-68
2022/02/12 05:52:14;;;;;;;6.60;4.40;;;;;;;0.53;74.48;98425.52;109648;1251;68597;-64
2022/02/12 05:54:43;;;;;;;8.50;5.40;;;;;;;0.50;74.46;98431.73;109837;1248;59728;-63
2022/02/12 05:57:13;;;;;;;8.00;5.10;;;;;;;0.46;74.57;98438.84;109877;1247;59698;-66
2022/02/12 05:59:43;;;;;;;9.40;6.10;;;;;;;0.40;74.54;98446.30;109986;1250;71524;-64
2022/02/12 06:02:12;;;;;;;6.00;4.60;;;;;;;0.34;74.67;98450.16;109801;1250;69468;-72
2022/02/12 06:04:41;;;;;;;8.80;5.40;;;;;;;0.31;74.71;98452.96;109964;1250;68709;-65
2022/02/12 06:07:10;;;;;;;6.40;5.10;;;;;;;0.21;74.94;98462.88;109768;1247;59767;-64
2022/02/12 06:09:40;;;;;;;9.30;6.10;;;;;;;0.13;74.99;98470.02;110234;1247;59633;-66
2022/02/12 06:12:09;;;;;;;8.50;5.50;;;;;;;0.09;74.87;98479.33;109801;1250;71711;-67
2022/02/12 06:14:38;;;;;;;7.30;5.10;;;;;;;0.06;74.79;98481.62;109984;1251;68025;-64
2022/02/12 06:17:07;;;;;;;8.60;5.20;;;;;;;0.04;74.90;98482.65;109907;1250;68626;-67
2022/02/12 06:19:37;;;;;;;4.00;2.80;;;;;;;0.01;75.42;98479.95;109964;1247;59675;-66
2022/02/12 06:22:06;;;;;;;8.80;5.80;;;;;;;0.12;75.68;98478.45;110084;1247;59674;-63
2022/02/12 06:24:35;;;;;;;8.40;4.90;;;;;;;0.13;75.63;98481.86;109791;1250;70792;-70
2022/02/12 06:27:06;;;;;;;7.90;5.40;;;;;;;0.13;75.42;98481.84;110088;1249;67848;-72
2022/02/12 06:29:35;;;;;;;7.60;4.90;;;;;;;0.14;75.13;98486.45;110081;1247;68654;-71
2022/02/12 06:32:05;;;;;;;8.20;5.00;;;;;;;0.12;74.87;98495.40;109802;1250;59750;-73
2022/02/12 06:34:34;;;;;;;7.80;5.20;;;;;;;0.14;74.50;98503.44;110121;1248;59701;-65
2022/02/12 06:37:04;;;;;;;8.90;5.40;;;;;;;0.07;74.65;98504.23;109958;1250;71613;-64
2022/02/12 06:39:33;;;;;;;;;;;;;;;0.03;74.74;98510.60;109786;1250;69071;-64
2022/02/12 06:42:03;;;;;;;5.40;4.30;;;;;;;0.04;74.45;98509.58;109902;1250;68482;-64
2022/02/12 06:44:32;;;;;;;6.00;4.40;;;;;;;0.02;74.29;98521.94;109900;1248;59680;-66
2022/02/12 06:47:03;;;;;;;6.90;4.50;;;;;;;-0.03;74.59;98525.95;109887;1249;59737;-66
2022/02/12 06:49:32;;;;;;;13.30;8.10;;;;;;;0.02;74.27;98532.58;109887;1250;70776;-68
2022/02/12 06:52:04;;;;;;;10.80;8.40;;;;;;;-0.01;74.25;98533.64;110003;1250;69265;-71
2022/02/12 06:54:33;;;;;;;8.10;5.50;;;;;;;0.08;74.16;98536.60;110137;1247;69413;-70
2022/02/12 06:57:03;;;;;;;7.00;4.90;;;;;;;0.14;73.98;98545.61;109970;1250;59782;-71
2022/02/12 06:59:35;;;;;;;6.10;4.40;;;;;;;0.26;73.90;98545.11;110056;1249;59808;-73
2022/02/12 07:02:04;;;;;;;7.40;4.70;;;;;;;0.47;73.67;98555.29;109918;1250;70999;-70
2022/02/12 07:04:32;;;;;;;8.20;5.90;;;;;;;0.70;72.70;98559.58;109745;1249;68225;-71
2022/02/12 07:07:02;;;;;;;13.50;8.70;;;;;;;0.75;71.65;98556.92;110109;1247;68944;-65
2022/02/12 07:09:31;;;;;;;7.50;5.00;;;;;;;0.82;71.68;98558.71;110120;1248;59690;-68
2022/02/12 07:12:00;;;;;;;10.90;5.70;;;;;;;1.00;71.59;98564.08;109919;1250;59761;-68
2022/02/12 07:14:29;;;;;;;27.10;14.00;;;;;;;1.10;71.73;98571.83;110022;1248;71943;-64
2022/02/12 07:16:58;;;;;;;23.60;11.30;;;;;;;1.16;71.43;98579.64;110046;1247;67255;-66
2022/02/12 07:19:27;;;;;;;15.50;9.80;;;;;;;1.18;70.88;98585.77;109992;1249;69505;-65
2022/02/12 07:21:56;;;;;;;14.00;6.90;;;;;;;1.29;71.12;98581.80;110048;1249;60070;-65
2022/02/12 07:24:25;;;;;;;12.20;7.50;;;;;;;1.46;70.96;98588.90;110026;1248;59634;-65
2022/02/12 07:26:54;;;;;;;13.10;9.00;;;;;;;1.62;70.07;98588.96;109984;1250;71648;-66
2022/02/12 07:29:23;;;;;;;9.00;5.50;;;;;;;1.67;68.96;98590.42;109980;1247;68556;-65
2022/02/12 07:31:52;;;;;;;14.30;10.80;;;;;;;1.83;69.22;98592.52;110167;1247;68868;-66
2022/02/12 07:34:21;;;;;;;9.20;6.30;;;;;;;1.96;69.30;98598.14;109963;1250;59740;-66
2022/02/12 07:36:50;;;;;;;8.70;6.40;;;;;;;2.08;68.68;98594.63;110066;1250;59729;-66
2022/02/12 07:39:19;;;;;;;9.10;7.60;;;;;;;2.28;68.83;98596.45;110017;1247;70768;-73
2022/02/12 07:41:49;;;;;;;13.00;8.80;;;;;;;2.57;67.88;98603.41;110135;1247;68594;-71
2022/02/12 07:44:17;;;;;;;14.80;10.90;;;;;;;2.85;66.44;98608.64;109864;1250;68848;-69
2022/02/12 07:46:47;;;;;;;14.00;10.70;;;;;;;3.07;65.30;98613.64;109976;1249;60118;-72
2022/02/12 07:49:16;;;;;;;8.40;5.30;;;;;;;3.10;62.89;98614.61;109815;1248;59699;-70
2022/02/12 07:51:45;;;;;;;6.00;4.50;;;;;;;3.18;63.36;98626.31;110090;1247;72016;-67
2022/02/12 07:54:15;;;;;;;6.40;4.60;;;;;;;3.23;62.30;98627.91;110238;1247;67790;-64
2022/02/12 07:56:44;;;;;;;6.50;4.20;;;;;;;3.28;61.56;98630.71;109831;1247;68705;-65
2022/02/12 07:59:13;;;;;;;11.10;7.70;;;;;;;3.15;61.40;98630.84;110129;1247;59655;-62
2022/02/12 08:01:42;;;;;;;18.50;13.40;;;;;;;3.24;61.85;98639.24;110212;1247;59732;-72
2022/02/12 08:04:13;;;;;;;8.80;5.90;;;;;;;3.35;61.87;98641.92;110171;1247;70744;-66
2022/02/12 08:09:31;;;;;;;12.30;9.30;;;;;;;3.99;59.86;98639.75;109997;1248;69424;-70
2022/02/12 08:12:15;;;;;;;15.90;11.40;;;;;;;4.66;59.46;98641.51;110148;1247;59737;-65
2022/02/12 08:14:46;;;;;;;11.30;8.80;;;;;;;6.01;55.66;98647.21;110168;1247;60038;-71
2022/02/12 08:17:17;;;;;;;8.20;5.40;;;;;;;7.25;54.01;98645.20;110068;1248;71118;-68
2022/02/12 08:19:48;;;;;;;20.10;13.80;;;;;;;8.31;50.30;98644.79;110170;1248;67623;-66
2022/02/12 08:22:19;;;;;;;10.50;7.50;;;;;;;9.04;47.71;98651.36;110199;1247;68984;-67
2022/02/12 08:24:48;;;;;;;7.00;5.90;;;;;;;9.63;47.97;98658.64;110008;1247;59764;-70
2022/02/12 08:27:21;;;;;;;10.10;8.10;;;;;;;10.30;46.15;98654.02;110231;1247;59675;-66
2022/02/12 08:29:50;;;;;;;12.00;10.20;;;;;;;11.01;44.80;98663.73;110197;1247;71527;-67
2022/02/12 08:32:20;;;;;;;9.10;7.20;;;;;;;11.38;43.28;98667.42;109960;1250;67549;-67
2022/02/12 08:34:50;;;;;;;;;;;;;;;11.05;42.08;98681.29;110162;1247;68586;-65
2022/02/12 08:37:19;;;;;;;7.90;7.10;;;;;;;11.08;42.62;98685.16;110127;1247;59748;-68
2022/02/12 08:39:49;;;;;;;11.40;7.70;;;;;;;11.01;41.18;98685.00;109901;1250;59738;-70
2022/02/12 08:42:20;;;;;;;11.20;8.70;;;;;;;10.53;41.41;98685.79;110006;1248;70634;-71
2022/02/12 08:44:50;;;;;;;10.70;8.10;;;;;;;10.29;41.34;98691.77;109977;1250;68639;-70
2022/02/12 08:47:19;;;;;;;9.10;7.10;;;;;;;10.06;41.15;98690.46;110075;1248;70009;-71
2022/02/12 08:49:48;;;;;;;7.00;5.10;;;;;;;9.67;41.97;98696.41;110152;1247;59670;-72
2022/02/12 08:52:17;;;;;;;7.90;6.40;;;;;;;9.31;42.99;98701.96;109889;1249;59712;-69
2022/02/12 08:54:45;;;;;;;7.90;6.60;;;;;;;9.11;42.88;98703.56;109878;1250;71578;-67
2022/02/12 08:57:14;;;;;;;7.90;6.00;;;;;;;9.02;43.41;98708.02;109908;1250;67966;-69
2022/02/12 08:59:44;;;;;;;5.50;4.60;;;;;;;8.92;43.24;98708.96;110048;1249;68695;-66
2022/02/12 09:02:14;;;;;;;6.80;4.90;;;;;;;9.41;42.77;98715.02;109965;1250;59732;-72
2022/02/12 09:04:43;;;;;;;6.70;4.40;;;;;;;10.23;41.03;98719.91;109911;1250;59711;-69
2022/02/12 09:07:12;;;;;;;6.00;4.80;;;;;;;11.10;39.91;98722.16;109955;1250;71507;-71
2022/02/12 09:09:42;;;;;;;5.80;5.00;;;;;;;11.93;38.46;98721.06;109845;1250;68645;-71
2022/02/12 09:12:12;;;;;;;6.50;4.70;;;;;;;12.89;37.30;98722.67;109944;1250;68655;-69
2022/02/12 09:14:41;;;;;;;5.70;4.60;;;;;;;13.46;35.26;98732.28;110176;1247;59746;-72
2022/02/12 09:17:10;;;;;;;5.90;4.20;;;;;;;13.99;34.00;98737.09;109954;1250;59675;-71
2022/02/12 09:19:39;;;;;;;5.80;4.60;;;;;;;13.96;34.18;98742.20;109854;1248;71547;-73
2022/02/12 09:22:10;;;;;;;5.50;5.00;;;;;;;13.52;33.35;98740.48;109984;1247;68538;-66
2022/02/12 09:24:39;;;;;;;5.90;4.80;;;;;;;13.54;34.55;98751.02;109983;1250;68663;-69
2022/02/12 09:27:09;;;;;;;4.70;4.20;;;;;;;13.49;34.36;98751.54;109974;1250;59754;-66
2022/02/12 09:29:39;;;;;;;6.10;5.40;;;;;;;13.11;34.46;98753.19;109899;1250;59681;-68
2022/02/12 09:32:11;;;;;;;8.60;6.10;;;;;;;13.76;34.88;98759.59;109957;1249;71607;-67
2022/02/12 09:34:40;;;;;;;4.70;3.80;;;;;;;14.77;33.05;98761.00;109976;1250;67619;-67
2022/02/12 09:37:09;;;;;;;5.30;4.50;;;;;;;15.70;31.92;98760.23;109920;1250;68969;-68
2022/02/12 09:39:39;;;;;;;5.60;4.00;;;;;;;16.30;30.70;98759.73;110068;1249;59761;-70
2022/02/12 09:42:10;;;;;;;6.00;4.50;;;;;;;16.43;29.17;98760.18;109980;1250;59815;-71
2022/02/12 09:44:40;;;;;;;8.00;6.60;;;;;;;15.21;29.66;98758.61;110098;1250;71258;-72
2022/02/12 09:47:42;;;;;;;7.40;5.30;;;;;;;14.52;30.48;98767.95;109968;1250;68320;-65
2022/02/12 09:50:13;;;;;;;7.40;6.30;;;;;;;13.79;31.36;98772.02;109912;1250;69453;-66
2022/02/12 09:52:47;;;;;;;4.30;3.90;;;;;;;13.53;32.04;98772.98;109807;1250;59774;-65
2022/02/12 09:55:17;;;;;;;5.40;3.60;;;;;;;13.80;31.74;98766.70;110087;1249;59677;-66
2022/02/12 09:57:46;;;;;;;4.50;3.60;;;;;;;14.61;30.85;98759.96;110075;1248;72042;-66
2022/02/12 10:00:19;;;;;;;7.00;4.60;;;;;;;15.12;29.88;98757.65;110153;1245;67820;-66
2022/02/12 10:02:48;;;;;;;24.50;16.00;;;;;;;15.71;29.40;98759.64;109983;1250;68955;-68
2022/02/12 10:05:26;;;;;;;11.90;8.40;;;;;;;15.80;28.07;98754.28;110146;1247;59684;-70
2022/02/12 10:08:01;;;;;;;5.30;4.30;;;;;;;16.09;28.35;98758.10;109957;1248;59697;-68
2022/02/12 10:10:35;;;;;;;4.40;3.20;;;;;;;16.86;28.29;98760.58;110065;1250;71620;-71
2022/02/12 10:13:29;;;;;;;4.10;3.50;;;;;;;17.57;26.26;98757.98;110016;1248;68592;-67
2022/02/12 10:16:01;;;;;;;4.80;3.40;;;;;;;17.69;25.93;98759.54;109916;1248;68269;-68
2022/02/12 10:18:32;;;;;;;4.90;3.90;;;;;;;17.86;25.31;98756.77;109949;1247;59695;-67
2022/02/12 10:21:02;;;;;;;4.20;3.70;;;;;;;18.05;25.07;98761.73;109988;1250;59676;-72
2022/02/12 10:23:34;;;;;;;3.60;3.10;;;;;;;17.37;25.52;98756.74;110137;1247;70864;-73
2022/02/12 10:26:03;;;;;;;4.90;4.00;;;;;;;16.89;25.87;98760.55;110165;1247;67851;-73
2022/02/12 10:28:42;;;;;;;4.20;3.20;;;;;;;17.13;25.62;98754.05;109941;1248;69320;-72
2022/02/12 10:31:14;;;;;;;4.80;3.10;;;;;;;17.00;25.86;98753.53;109984;1250;59686;-73
2022/02/12 10:33:45;;;;;;;5.50;3.60;;;;;;;16.01;26.87;98751.13;109985;1250;59681;-73
2022/02/12 10:36:17;;;;;;;4.00;3.00;;;;;;;15.26;27.79;98751.95;109928;1250;70690;-70
2022/02/12 10:38:47;;;;;;;5.20;4.00;;;;;;;14.93;28.38;98753.95;109994;1250;67610;-70
2022/02/12 10:41:18;;;;;;;4.70;3.60;;;;;;;15.04;29.24;98751.04;109911;1247;69672;-67
2022/02/12 10:43:49;;;;;;;4.10;3.50;;;;;;;15.73;28.79;98751.24;109982;1248;59722;-68
2022/02/12 10:46:20;;;;;;;3.80;3.30;;;;;;;16.84;27.72;98745.05;110189;1247;59669;-71
2022/02/12 10:48:51;;;;;;;4.50;3.60;;;;;;;17.24;25.42;98743.03;109897;1250;70985;-65
2022/02/12 10:51:21;;;;;;;4.70;3.70;;;;;;;17.69;25.80;98752.47;109985;1248;68712;-67
2022/02/12 10:53:58;;;;;;;4.30;3.30;;;;;;;18.17;25.60;98754.70;110139;1247;68671;-72
2022/02/12 10:56:51;;;;;;;4.40;3.50;;;;;;;18.65;24.42;98753.55;110172;1247;59772;-70
2022/02/12 10:59:23;;;;;;;3.70;3.20;;;;;;;18.75;23.46;98755.00;110178;1247;59677;-65
2022/02/12 11:01:53;;;;;;;3.70;2.90;;;;;;;18.42;24.12;98759.33;109734;1250;72303;-67
2022/02/12 11:04:24;;;;;;;3.90;3.00;;;;;;;18.89;23.16;98760.52;110215;1247;68735;-74
2022/02/12 11:06:54;;;;;;;4.10;3.30;;;;;;;18.78;22.53;98753.96;110011;1247;69519;-72
2022/02/12 11:09:24;;;;;;;4.80;3.60;;;;;;;18.62;23.07;98756.46;109941;1248;59731;-71
2022/02/12 11:11:53;;;;;;;5.00;3.40;;;;;;;18.56;23.43;98758.56;109995;1247;59683;-72
2022/02/12 11:14:22;;;;;;;4.50;3.20;;;;;;;17.72;23.69;98763.33;110038;1248;72190;-70
2022/02/12 11:16:51;;;;;;;3.80;3.00;;;;;;;16.53;24.54;98768.70;110149;1247;68291;-71
2022/02/12 11:19:24;;;;;;;5.20;3.20;;;;;;;15.95;25.48;98770.77;110046;1248;68682;-69
2022/02/12 11:21:55;;;;;;;3.30;2.70;;;;;;;15.94;25.72;98767.36;110140;1247;59760;-71
2022/02/12 11:24:39;;;;;;;4.00;2.70;;;;;;;14.96;25.54;98765.99;110200;1248;59671;-73
2022/02/12 11:27:19;;;;;;;3.40;2.60;;;;;;;14.52;26.87;98764.44;110194;1247;71883;-72
2022/02/12 11:29:51;;;;;;;4.00;2.80;;;;;;;14.26;27.18;98771.60;110160;1247;67945;-72
2022/02/12 11:32:26;;;;;;;3.60;2.70;;;;;;;13.51;27.71;98771.35;110150;1247;69425;-71
2022/02/12 11:34:55;;;;;;;5.00;3.50;;;;;;;13.50;28.53;98770.94;110194;1247;59753;-66
2022/02/12 11:37:31;;;;;;;3.60;2.90;;;;;;;12.33;29.51;98761.75;110163;1247;59685;-69
2022/02/12 11:40:17;;;;;;;3.40;2.60;;;;;;;11.77;30.13;98770.49;110108;1247;71577;-71
2022/02/12 11:42:50;;;;;;;5.40;2.80;;;;;;;11.35;30.45;98770.36;110137;1247;68600;-71
2022/02/12 11:45:34;;;;;;;4.20;3.40;;;;;;;11.10;30.87;98764.73;110161;1247;69808;-73
2022/02/12 11:48:19;;;;;;;4.40;2.60;;;;;;;10.50;31.36;98765.23;109930;1247;59763;-69